Airfield :
LOGIN :

Register | Disclaimer

   EN    FR    IT 

 










Legend :    VFR   Marginal VFR   IFR   Intensive IFR   Very Intensive IFR
Visi :
Ceiling :
>= 8 km
>= 3000ft
5 to 8 km
1000 to 3000 ft
1500m to 5 km
500 to 1000 ft
800 to 1500m
200 to 500 ft
< 800m
< 200 ft
Symbols :   Thunderstorms  Fog  Heavy snow  Heavy precipitations  Wind > 20 kt
SIGMETs :     Misc.  Thunderstorms  Icing  Turbulence  Mountain Waves  Volcanic Ashes







- Airport Elevation : 194 ft
- IATA code : LME
- Download approach charts


LFRM - Le Mans

CURRENT METAR :
  • 212200Z AUTO 03006KT 360V060 CAVOK 18/13 Q1012

EXPIRED METARs :
  • 212130Z AUTO 01007KT 340V040 CAVOK 19/13 Q1012 NOSIG
  • 212100Z AUTO 36008KT 330V030 CAVOK 20/13 Q1012 NOSIG
  • 212030Z AUTO 36010KT CAVOK 20/12 Q1012 NOSIG
  • 212000Z AUTO 02005KT CAVOK 22/11 Q1012 TEMPO 4900 SHRA SCT050CB
  • 211930Z AUTO 03005KT CAVOK 22/10 Q1011 TEMPO 4900 SHRA SCT050CB

TAF TAF LFRM
Valid from the 21 at 18:00 until the 22 at 18:00 UTC


211700Z 2118/2218 02008KT CAVOK
PROB40
TEMPO 2118/2121 4900 SHRA SCT050CB
PROB30
TEMPO 2118/2120 VRB15G25KT 2500 TSRAGR BKN040CB
PROB30
TEMPO 2203/2206 3000 BR
TEMPO 2212/2218 4000 SHRA BKN050CB
No reported NOTAMs for that airfield.



MET'MAP, your aeronautical weather chart ! - Copyright ORBIFLY December 2007 - Disclaimer

ORBIFLY MET'MAP TEAM :

Programming & Development : Alexandra Zaïnal
Concept & Development : Baudouin d'Aumeries
Co-Development & Prog : Marc-Olivier Méhu
Technical & hardware support : Manuel Goepfert

Contact : metmap@orbifly.com




SOURCES & CREDITS :

   NOAA